Time;durP1;ratioP1;P1;durP2;ratioP2;P2;SDS_P1;SDS_P2;PMS_P1;PMS_P2;Temp;Humidity;BMP_temperature;BMP_pressure;BME280_temperature;BME280_humidity;BME280_pressure;Samples;Min_cycle;Max_cycle;Signal;HPM_P1;HPM_P2
2022/04/08 00:00:45;;;;;;;9.87;2.40;;;6.10;1.00;;;;;;5020195;28;20434;-66
2022/04/08 00:03:11;;;;;;;4.53;2.53;;;6.10;1.00;;;;;;5037171;28;20463;-66
2022/04/08 00:05:38;;;;;;;4.30;2.77;;;6.10;1.00;;;;;;5036806;28;20533;-66
2022/04/08 00:08:08;;;;;;;6.63;2.90;;;6.20;1.00;;;;;;5036957;28;20892;-66
2022/04/08 00:10:40;;;;;;;6.13;2.70;;;6.10;1.00;;;;;;5036497;28;20510;-66
2022/04/08 00:13:07;;;;;;;5.73;2.77;;;6.20;1.00;;;;;;5036520;28;20497;-67
2022/04/08 00:15:39;;;;;;;4.63;2.70;;;6.10;1.00;;;;;;5027372;28;20468;-66
2022/04/08 00:18:07;;;;;;;4.93;3.40;;;6.10;1.00;;;;;;5016880;28;20563;-66
2022/04/08 00:20:36;;;;;;;5.87;3.23;;;6.10;1.00;;;;;;5016827;28;20438;-66
2022/04/08 00:23:06;;;;;;;4.93;2.70;;;6.10;1.00;;;;;;5017148;28;20534;-66
2022/04/08 00:25:37;;;;;;;5.73;2.77;;;6.00;1.00;;;;;;5021699;28;20919;-66
2022/04/08 00:28:04;;;;;;;4.43;2.77;;;6.00;1.00;;;;;;5036771;28;20900;-66
2022/04/08 00:30:34;;;;;;;6.10;3.00;;;6.00;1.00;;;;;;5034607;28;20469;-66
2022/04/08 00:33:03;;;;;;;5.43;2.60;;;6.00;1.00;;;;;;5036568;28;20463;-66
2022/04/08 00:35:31;;;;;;;2.80;1.97;;;5.90;1.00;;;;;;5034505;28;20490;-66
2022/04/08 00:37:58;;;;;;;5.83;2.93;;;5.90;1.00;;;;;;5017475;28;20514;-66
2022/04/08 00:40:28;;;;;;;9.10;2.90;;;5.90;1.00;;;;;;5016845;28;20834;-66
2022/04/08 00:43:00;;;;;;;5.80;2.70;;;5.80;1.00;;;;;;5016704;28;20911;-66
2022/04/08 00:45:33;;;;;;;6.30;2.30;;;5.90;1.00;;;;;;5017213;28;20471;-66
2022/04/08 00:48:07;;;;;;;4.90;2.73;;;5.80;1.00;;;;;;5032100;28;20491;-66
2022/04/08 00:50:39;;;;;;;4.10;2.37;;;5.80;1.00;;;;;;5036270;28;20532;-66
2022/04/08 00:53:08;;;;;;;4.70;2.13;;;5.80;1.00;;;;;;5022670;28;20460;-66
2022/04/08 00:55:43;;;;;;;7.10;2.87;;;5.80;1.00;;;;;;5021081;28;20461;-66
2022/04/08 00:58:13;;;;;;;4.10;2.50;;;5.70;1.00;;;;;;5034508;28;20498;-66
2022/04/08 01:00:42;;;;;;;5.80;2.73;;;5.70;1.00;;;;;;5039460;28;20473;-66
2022/04/08 01:03:10;;;;;;;6.70;3.00;;;5.70;1.00;;;;;;5038096;28;20465;-66
2022/04/08 01:05:54;;;;;;;7.20;3.00;;;5.70;1.00;;;;;;5039039;28;20805;-66
2022/04/08 01:08:21;;;;;;;6.50;3.00;;;5.70;1.00;;;;;;5026350;28;20514;-66
2022/04/08 01:10:52;;;;;;;7.53;2.63;;;5.70;1.00;;;;;;5020323;28;20471;-66
2022/04/08 01:13:19;;;;;;;7.60;3.97;;;5.70;1.00;;;;;;5019736;28;20499;-66
2022/04/08 01:15:48;;;;;;;10.10;3.60;;;5.70;1.00;;;;;;5020673;28;20468;-65
2022/04/08 01:18:16;;;;;;;8.97;4.30;;;5.60;1.00;;;;;;5027834;28;20884;-65
2022/04/08 01:20:46;;;;;;;7.20;3.33;;;5.60;1.00;;;;;;5039570;28;20916;-66
2022/04/08 01:23:17;;;;;;;5.87;2.80;;;5.60;1.00;;;;;;5038460;28;20742;-66
2022/04/08 01:25:45;;;;;;;9.93;3.77;;;5.60;1.00;;;;;;5040380;28;20498;-66
2022/04/08 01:28:14;;;;;;;7.93;3.50;;;5.50;1.00;;;;;;5034710;28;20464;-66
2022/04/08 01:30:41;;;;;;;9.37;3.87;;;5.50;1.00;;;;;;5019877;28;20478;-66
2022/04/08 01:33:12;;;;;;;14.00;4.40;;;5.50;1.00;;;;;;5021271;28;20582;-66
2022/04/08 01:35:41;;;;;;;13.97;4.00;;;5.50;1.00;;;;;;5020009;28;20530;-65
2022/04/08 01:38:09;;;;;;;13.50;4.90;;;5.50;1.00;;;;;;5019030;28;20471;-66
2022/04/08 01:40:36;;;;;;;8.20;4.10;;;5.50;1.00;;;;;;5019932;28;20939;-66
2022/04/08 01:43:08;;;;;;;11.00;4.30;;;5.50;1.00;;;;;;5019604;28;20500;-66
2022/04/08 01:45:35;;;;;;;7.80;4.10;;;5.50;7.70;;;;;;5020097;28;20533;-66
2022/04/08 01:48:14;;;;;;;9.10;4.70;;;5.50;8.50;;;;;;5020043;28;20495;-66
2022/04/08 01:50:41;;;;;;;15.00;4.20;;;5.50;7.00;;;;;;5036409;28;20850;-66
2022/04/08 01:53:08;;;;;;;11.37;4.57;;;5.50;11.60;;;;;;5024492;28;20863;-66
2022/04/08 01:55:35;;;;;;;9.90;5.50;;;5.50;1.00;;;;;;5019673;28;20526;-66
2022/04/08 01:58:06;;;;;;;14.37;6.20;;;5.50;1.00;;;;;;5019420;28;20494;-66
2022/04/08 02:00:41;;;;;;;11.30;4.67;;;5.50;1.00;;;;;;5031170;28;20907;-66
2022/04/08 02:03:09;;;;;;;9.40;4.60;;;5.50;1.00;;;;;;5038423;28;20528;-66
2022/04/08 02:05:36;;;;;;;7.53;4.00;;;5.50;21.30;;;;;;5038050;28;20509;-66
2022/04/08 02:08:03;;;;;;;9.20;3.90;;;5.40;97.20;;;;;;5038492;28;20459;-66
2022/04/08 02:10:30;;;;;;;25.83;7.13;;;5.50;99.90;;;;;;5029967;28;20817;-66
2022/04/08 02:13:02;;;;;;;9.70;4.13;;;5.40;99.90;;;;;;5018835;28;20960;-66
2022/04/08 02:15:39;;;;;;;9.10;4.00;;;5.40;99.90;;;;;;5018307;28;20471;-66
2022/04/08 02:18:07;;;;;;;7.33;4.20;;;5.40;99.90;;;;;;5018162;28;20890;-66
2022/04/08 02:20:34;;;;;;;10.47;4.63;;;5.30;99.90;;;;;;5023989;28;20459;-65
2022/04/08 02:23:01;;;;;;;8.10;4.10;;;5.30;99.90;;;;;;5038619;28;20497;-66
2022/04/08 02:25:40;;;;;;;9.80;4.53;;;5.30;99.90;;;;;;5038436;28;20545;-66
2022/04/08 02:28:10;;;;;;;7.50;4.20;;;5.30;99.90;;;;;;5038555;28;20469;-66
2022/04/08 02:30:40;;;;;;;8.47;4.10;;;5.30;99.90;;;;;;5036448;28;20950;-66
2022/04/08 02:33:07;;;;;;;11.63;4.50;;;5.30;99.90;;;;;;5018132;28;20591;-66
2022/04/08 02:35:40;;;;;;;12.30;4.10;;;5.30;99.90;;;;;;5019066;28;20460;-65
2022/04/08 02:38:10;;;;;;;11.37;4.20;;;5.30;99.90;;;;;;5018375;28;20499;-65
2022/04/08 02:40:39;;;;;;;7.80;5.30;;;5.20;99.90;;;;;;5018502;28;20555;-65
2022/04/08 02:43:06;;;;;;;6.80;3.97;;;5.20;99.90;;;;;;5015939;28;20550;-66
2022/04/08 02:45:36;;;;;;;8.97;4.50;;;5.20;99.90;;;;;;5019913;28;21233;-65
2022/04/08 02:48:13;;;;;;;9.30;4.70;;;5.20;99.90;;;;;;5018365;28;20554;-66
2022/04/08 02:50:40;;;;;;;8.37;4.83;;;5.20;99.90;;;;;;5018589;28;20464;-66
2022/04/08 02:53:10;;;;;;;12.37;5.13;;;5.20;99.90;;;;;;5031709;28;20527;-66
2022/04/08 02:55:44;;;;;;;11.90;4.73;;;5.10;99.90;;;;;;5037657;28;20486;-66
2022/04/08 02:58:11;;;;;;;11.77;4.97;;;5.20;99.90;;;;;;5017379;28;20880;-66
2022/04/08 03:00:40;;;;;;;13.70;4.70;;;5.20;99.90;;;;;;5018202;28;20483;-66
2022/04/08 03:03:09;;;;;;;9.90;5.03;;;5.20;99.90;;;;;;5027591;28;20777;-66
2022/04/08 03:05:36;;;;;;;16.90;4.97;;;5.20;99.90;;;;;;5038208;28;20463;-66
2022/04/08 03:08:08;;;;;;;12.63;5.80;;;5.10;99.90;;;;;;5022513;28;20464;-66
2022/04/08 03:10:35;;;;;;;12.67;5.10;;;5.10;99.90;;;;;;5017203;28;20464;-66
2022/04/08 03:13:05;;;;;;;13.13;4.33;;;5.10;99.90;;;;;;5022755;28;20633;-66
2022/04/08 03:15:32;;;;;;;16.03;4.70;;;5.10;99.90;;;;;;5037896;28;20900;-66
2022/04/08 03:18:05;;;;;;;7.67;4.10;;;5.10;99.90;;;;;;5037490;28;20525;-66
2022/04/08 03:20:46;;;;;;;16.50;4.83;;;5.20;99.90;;;;;;5037876;28;20498;-66
2022/04/08 03:23:15;;;;;;;17.20;5.00;;;5.20;99.90;;;;;;5033659;28;20547;-65
2022/04/08 03:25:42;;;;;;;16.10;5.00;;;5.20;99.90;;;;;;5018249;28;20550;-66
2022/04/08 03:28:09;;;;;;;11.60;4.50;;;5.10;74.30;;;;;;5026152;28;20502;-66
2022/04/08 03:30:41;;;;;;;8.43;4.70;;;5.10;52.70;;;;;;5037735;28;20898;-66
2022/04/08 03:33:11;;;;;;;15.17;4.10;;;5.20;53.70;;;;;;5036384;28;20497;-66
2022/04/08 03:35:42;;;;;;;12.23;4.50;;;5.10;57.20;;;;;;5036660;28;20474;-66
2022/04/08 03:38:17;;;;;;;18.93;4.80;;;5.10;99.90;;;;;;5035227;28;20470;-66
2022/04/08 03:40:47;;;;;;;9.60;4.10;;;5.10;99.90;;;;;;5037457;28;20469;-66
2022/04/08 03:43:14;;;;;;;7.90;4.40;;;5.10;99.90;;;;;;5037255;28;20495;-66
2022/04/08 03:45:43;;;;;;;8.57;4.63;;;5.10;47.30;;;;;;5020407;28;20496;-66
2022/04/08 03:48:13;;;;;;;14.40;5.03;;;5.10;62.50;;;;;;5017197;28;20495;-66
2022/04/08 03:50:40;;;;;;;11.10;5.00;;;5.00;95.30;;;;;;5017264;28;20464;-66
2022/04/08 03:53:14;;;;;;;9.57;4.00;;;5.10;99.90;;;;;;5017244;28;20583;-66
2022/04/08 03:55:41;;;;;;;10.90;4.03;;;5.10;99.90;;;;;;5017600;28;20500;-66
2022/04/08 03:58:10;;;;;;;10.37;5.00;;;5.00;99.90;;;;;;5017284;28;20467;-66
2022/04/08 04:00:39;;;;;;;9.30;4.90;;;5.00;66.60;;;;;;5017363;28;20924;-66
2022/04/08 04:03:06;;;;;;;15.67;5.43;;;5.00;90.50;;;;;;5017504;28;20885;-66
2022/04/08 04:05:38;;;;;;;8.40;6.47;;;5.00;76.90;;;;;;5024957;28;20983;-66
2022/04/08 04:08:18;;;;;;;16.33;4.63;;;4.90;96.70;;;;;;5036163;28;20880;-66
2022/04/08 04:10:51;;;;;;;18.77;4.40;;;4.90;99.90;;;;;;5031339;28;20467;-66
2022/04/08 04:13:25;;;;;;;8.70;4.10;;;4.90;99.90;;;;;;5035513;28;20534;-67
2022/04/08 04:15:56;;;;;;;9.10;5.43;;;4.90;99.90;;;;;;5029623;28;20470;-67
2022/04/08 04:18:26;;;;;;;10.40;4.40;;;4.80;43.30;;;;;;5017197;28;20549;-66
2022/04/08 04:20:56;;;;;;;10.43;4.30;;;4.80;22.50;;;;;;5028250;28;20471;-66
2022/04/08 04:23:25;;;;;;;8.50;4.50;;;4.80;5.40;;;;;;5037079;28;20487;-66
2022/04/08 04:25:55;;;;;;;15.53;4.43;;;4.80;4.00;;;;;;5033318;28;20453;-66
2022/04/08 04:28:22;;;;;;;11.53;4.90;;;4.70;1.00;;;;;;5016820;28;20559;-66
2022/04/08 04:30:53;;;;;;;9.87;4.50;;;4.80;19.70;;;;;;5020276;28;20474;-66
2022/04/08 04:33:22;;;;;;;11.77;4.43;;;4.70;30.40;;;;;;5020629;28;20801;-66
2022/04/08 04:35:49;;;;;;;12.07;5.07;;;4.80;10.20;;;;;;5020360;28;20551;-66
2022/04/08 04:38:16;;;;;;;10.80;5.20;;;4.70;12.50;;;;;;5038409;28;20501;-66
2022/04/08 04:40:45;;;;;;;13.90;5.33;;;4.80;5.40;;;;;;5037094;28;20459;-67
2022/04/08 04:43:12;;;;;;;10.60;5.20;;;4.80;3.00;;;;;;5026683;28;20889;-66
2022/04/08 04:45:47;;;;;;;10.50;5.40;;;4.80;5.40;;;;;;5029954;28;20926;-66
2022/04/08 04:48:23;;;;;;;17.43;7.70;;;4.80;13.50;;;;;;5024342;28;20521;-67
2022/04/08 04:50:56;;;;;;;10.83;5.13;;;4.80;47.30;;;;;;5020931;28;20532;-67
2022/04/08 04:53:29;;;;;;;13.83;4.83;;;4.80;99.90;;;;;;5025688;28;20790;-67
2022/04/08 04:56:00;;;;;;;17.30;4.93;;;4.90;99.90;;;;;;5020687;28;20828;-67
2022/04/08 04:58:35;;;;;;;16.00;5.93;;;4.80;99.90;;;;;;5030362;28;20517;-67
2022/04/08 05:01:06;;;;;;;13.67;5.23;;;4.80;99.90;;;;;;5038676;28;20469;-67
2022/04/08 05:03:35;;;;;;;12.07;5.40;;;4.80;99.90;;;;;;5038617;28;20502;-67
2022/04/08 05:06:10;;;;;;;12.10;5.87;;;4.80;99.90;;;;;;5039476;28;20503;-67
2022/04/08 05:08:45;;;;;;;11.67;6.10;;;4.90;99.90;;;;;;5034519;28;20469;-66
2022/04/08 05:11:15;;;;;;;16.13;5.10;;;4.80;99.90;;;;;;5040382;28;20472;-66
2022/04/08 05:13:43;;;;;;;13.07;6.13;;;4.80;99.90;;;;;;5028146;28;20498;-66
2022/04/08 05:16:12;;;;;;;15.97;6.13;;;4.90;96.00;;;;;;5026912;28;20489;-66
2022/04/08 05:18:39;;;;;;;8.90;4.63;;;4.90;99.90;;;;;;5024459;28;20471;-67
2022/04/08 05:21:06;;;;;;;11.03;5.80;;;4.80;44.80;;;;;;5029541;28;20545;-67
2022/04/08 05:23:33;;;;;;;11.50;5.60;;;4.90;24.70;;;;;;5024451;28;20438;-67
2022/04/08 05:26:02;;;;;;;9.27;5.30;;;4.80;1.00;;;;;;5025798;28;20460;-67
2022/04/08 05:28:32;;;;;;;10.17;5.20;;;4.80;1.00;;;;;;5026756;28;20516;-67
2022/04/08 05:31:02;;;;;;;10.43;5.40;;;4.70;1.00;;;;;;5029718;28;20471;-67
2022/04/08 05:33:36;;;;;;;9.83;5.70;;;4.70;1.00;;;;;;5026640;28;20868;-66
2022/04/08 05:36:03;;;;;;;8.00;5.53;;;4.80;1.00;;;;;;5029351;28;21424;-66
2022/04/08 05:38:30;;;;;;;12.10;5.80;;;4.90;1.00;;;;;;5026749;28;20471;-66
2022/04/08 05:40:59;;;;;;;10.80;6.00;;;4.90;1.00;;;;;;5028063;28;20506;-66
2022/04/08 05:43:36;;;;;;;10.47;6.07;;;5.00;1.00;;;;;;5030106;28;20455;-67
2022/04/08 05:46:03;;;;;;;10.43;5.67;;;5.10;1.00;;;;;;5038718;28;20505;-67
2022/04/08 05:48:34;;;;;;;20.07;5.63;;;5.10;1.00;;;;;;5023880;28;21040;-67
2022/04/08 05:51:01;;;;;;;11.50;5.47;;;5.20;1.00;;;;;;5018109;28;20823;-67
2022/04/08 05:53:32;;;;;;;9.33;5.67;;;5.20;1.00;;;;;;5022760;28;20850;-67
2022/04/08 05:56:02;;;;;;;17.13;4.73;;;5.20;1.00;;;;;;5039427;28;20759;-67
2022/04/08 05:58:42;;;;;;;13.10;5.23;;;5.30;1.00;;;;;;5038154;28;20562;-67
2022/04/08 06:01:10;;;;;;;9.23;4.77;;;5.30;1.00;;;;;;5038674;28;20900;-67
2022/04/08 06:03:37;;;;;;;15.67;5.60;;;5.20;1.00;;;;;;5036074;28;20962;-67
2022/04/08 06:06:07;;;;;;;12.97;5.47;;;5.30;1.00;;;;;;5018960;28;20470;-67
2022/04/08 06:08:34;;;;;;;17.10;5.60;;;5.20;1.00;;;;;;5018655;28;20534;-67
2022/04/08 06:11:04;;;;;;;13.60;6.17;;;5.30;1.00;;;;;;5028706;28;20474;-67
2022/04/08 06:13:31;;;;;;;10.93;6.17;;;5.40;1.00;;;;;;5025862;28;20972;-67
2022/04/08 06:16:02;;;;;;;14.60;6.87;;;5.40;1.00;;;;;;5024124;28;20905;-67
2022/04/08 06:18:35;;;;;;;11.47;6.13;;;5.60;1.00;;;;;;5029564;28;20836;-67
2022/04/08 06:21:04;;;;;;;10.63;6.90;;;5.60;1.00;;;;;;5031711;28;20495;-67
2022/04/08 06:23:31;;;;;;;11.83;6.60;;;5.80;1.00;;;;;;5019004;28;20761;-67
2022/04/08 06:25:59;;;;;;;12.87;6.37;;;5.90;1.00;;;;;;5018574;28;20499;-67
2022/04/08 06:28:27;;;;;;;11.73;6.70;;;6.00;1.00;;;;;;5036122;28;20521;-66
2022/04/08 06:30:54;;;;;;;11.87;6.73;;;6.00;1.00;;;;;;5021375;28;20523;-66
2022/04/08 06:33:23;;;;;;;9.50;6.10;;;6.00;1.00;;;;;;5018106;28;20496;-67
2022/04/08 06:35:54;;;;;;;12.97;6.20;;;6.00;1.00;;;;;;5020940;28;20466;-67
2022/04/08 06:38:27;;;;;;;17.10;6.50;;;6.10;1.00;;;;;;5037493;28;20753;-67
2022/04/08 06:40:56;;;;;;;9.57;6.00;;;6.20;1.00;;;;;;5038065;28;20506;-67
2022/04/08 06:43:36;;;;;;;13.60;7.10;;;6.50;1.00;;;;;;5036389;28;20459;-67
2022/04/08 06:46:03;;;;;;;8.63;6.00;;;6.60;1.00;;;;;;5019052;28;20899;-67
2022/04/08 06:48:33;;;;;;;14.87;8.10;;;6.70;1.00;;;;;;5023008;28;20510;-67
2022/04/08 06:51:04;;;;;;;10.67;6.93;;;6.70;1.00;;;;;;5017978;28;20850;-67
2022/04/08 06:53:32;;;;;;;16.47;7.70;;;6.80;1.00;;;;;;5017933;28;20491;-67
2022/04/08 06:56:02;;;;;;;10.83;8.40;;;7.10;1.00;;;;;;5018536;28;20467;-67
2022/04/08 06:58:30;;;;;;;11.63;8.60;;;7.30;1.00;;;;;;5016882;28;20909;-67
2022/04/08 07:01:00;;;;;;;11.10;8.00;;;7.70;1.00;;;;;;5017864;28;20945;-67
2022/04/08 07:03:27;;;;;;;11.13;9.23;;;7.80;1.00;;;;;;5018124;28;20452;-67
2022/04/08 07:06:03;;;;;;;19.30;8.47;;;7.90;1.00;;;;;;5018240;28;20503;-67
2022/04/08 07:08:33;;;;;;;13.73;9.10;;;8.00;1.00;;;;;;5019359;28;20493;-67
2022/04/08 07:11:01;;;;;;;10.33;7.40;;;8.30;99.90;;;;;;5033845;28;20994;-66
2022/04/08 07:13:28;;;;;;;17.03;8.10;;;8.60;99.90;;;;;;5034020;28;20509;-65
2022/04/08 07:16:05;;;;;;;11.30;7.83;;;8.60;99.90;;;;;;5019997;28;20503;-65
2022/04/08 07:18:37;;;;;;;13.00;8.47;;;8.60;99.90;;;;;;5015465;28;20525;-65
2022/04/08 07:21:06;;;;;;;12.03;8.13;;;8.50;99.90;;;;;;5016939;28;20485;-65
2022/04/08 07:23:36;;;;;;;16.73;8.33;;;8.20;99.90;;;;;;5016956;28;20567;-64
2022/04/08 07:26:06;;;;;;;10.67;7.57;;;8.10;99.90;;;;;;5017342;28;20873;-65
2022/04/08 07:28:38;;;;;;;16.17;8.70;;;7.90;99.90;;;;;;5022714;28;20937;-65
2022/04/08 07:31:11;;;;;;;9.10;8.10;;;7.80;99.90;;;;;;5025446;28;20474;-65
2022/04/08 07:33:37;;;;;;;9.90;8.77;;;7.90;99.90;;;;;;5027543;28;20487;-65
2022/04/08 07:36:06;;;;;;;13.40;8.83;;;7.80;99.90;;;;;;5034051;28;20553;-64
2022/04/08 07:38:36;;;;;;;10.47;8.00;;;7.60;99.90;;;;;;5032288;28;20500;-65
2022/04/08 07:41:03;;;;;;;12.20;7.07;;;7.50;99.90;;;;;;5016381;28;20901;-65
2022/04/08 07:43:49;;;;;;;11.50;7.80;;;7.40;99.90;;;;;;5018847;28;20555;-65
2022/04/08 07:46:18;;;;;;;13.80;9.50;;;7.60;99.90;;;;;;5036350;28;20459;-65
2022/04/08 07:48:48;;;;;;;11.70;8.97;;;7.60;99.90;;;;;;5027132;28;20463;-65
2022/04/08 07:51:17;;;;;;;10.63;9.40;;;7.50;99.90;;;;;;5016689;28;20631;-65
2022/04/08 07:53:46;;;;;;;15.80;10.63;;;7.50;99.90;;;;;;5034816;28;20523;-65
2022/04/08 07:56:13;;;;;;;11.33;10.23;;;7.50;99.90;;;;;;5036980;28;20463;-65
2022/04/08 07:58:48;;;;;;;10.53;9.47;;;7.50;99.90;;;;;;5036840;28;20438;-65
2022/04/08 08:01:15;;;;;;;10.93;9.83;;;7.50;99.90;;;;;;5019747;28;20923;-65
2022/04/08 08:03:45;;;;;;;11.17;9.90;;;7.60;99.90;;;;;;5021686;28;20499;-65
2022/04/08 08:06:12;;;;;;;11.13;9.77;;;7.50;99.90;;;;;;5017354;28;20471;-65
2022/04/08 08:08:44;;;;;;;10.33;9.43;;;7.40;99.90;;;;;;5017422;28;20947;-65
2022/04/08 08:11:15;;;;;;;15.20;10.67;;;7.50;99.90;;;;;;5017947;28;20776;-65
2022/04/08 08:13:42;;;;;;;15.73;12.23;;;7.50;99.90;;;;;;5019320;28;20550;-65
2022/04/08 08:16:09;;;;;;;13.40;11.90;;;7.40;99.90;;;;;;5016878;28;20815;-65
2022/04/08 08:18:36;;;;;;;12.20;11.10;;;7.50;99.90;;;;;;5027835;28;20467;-65
2022/04/08 08:21:03;;;;;;;10.77;9.77;;;7.50;99.90;;;;;;5027841;28;20468;-65
2022/04/08 08:23:33;;;;;;;12.97;9.60;;;7.40;99.90;;;;;;5017553;28;20839;-65
2022/04/08 08:26:06;;;;;;;14.33;10.10;;;7.50;99.90;;;;;;5018016;28;20924;-65
2022/04/08 08:28:35;;;;;;;10.07;9.07;;;7.50;99.90;;;;;;5017139;28;20463;-65
2022/04/08 08:31:05;;;;;;;9.47;8.20;;;7.60;99.90;;;;;;5019904;28;20459;-65
2022/04/08 08:33:43;;;;;;;10.50;7.83;;;7.70;99.90;;;;;;5036265;28;20487;-65
2022/04/08 08:36:14;;;;;;;12.53;7.47;;;7.50;99.90;;;;;;5036179;28;20907;-65
2022/04/08 08:38:46;;;;;;;8.40;7.60;;;7.50;99.90;;;;;;5036547;28;20467;-65
2022/04/08 08:41:18;;;;;;;8.13;7.13;;;7.60;99.90;;;;;;5028099;28;20474;-66
2022/04/08 08:43:47;;;;;;;9.43;7.97;;;7.80;99.90;;;;;;5037043;28;20541;-65
2022/04/08 08:46:17;;;;;;;9.60;6.80;;;7.80;99.90;;;;;;5036288;28;20566;-65
2022/04/08 08:48:50;;;;;;;8.57;7.70;;;7.70;99.90;;;;;;5036587;28;20846;-65
2022/04/08 08:51:20;;;;;;;8.47;7.53;;;7.90;99.90;;;;;;5036408;28;20560;-65
2022/04/08 08:53:47;;;;;;;7.60;6.83;;;8.00;99.90;;;;;;5029909;28;20492;-65
2022/04/08 08:56:21;;;;;;;7.37;6.50;;;7.80;99.90;;;;;;5027069;28;20435;-65
2022/04/08 08:58:51;;;;;;;10.07;7.00;;;7.80;99.90;;;;;;5017775;28;20489;-65
2022/04/08 09:01:17;;;;;;;7.13;6.43;;;7.90;99.90;;;;;;5028628;28;20550;-65
2022/04/08 09:03:47;;;;;;;7.10;6.40;;;8.00;99.90;;;;;;5026957;28;20463;-65
2022/04/08 09:06:18;;;;;;;7.07;6.47;;;8.10;99.90;;;;;;5035585;28;20742;-65
2022/04/08 09:08:55;;;;;;;6.33;4.93;;;8.30;99.90;;;;;;5015793;28;20460;-65
2022/04/08 09:11:27;;;;;;;6.57;5.20;;;8.40;99.90;;;;;;5029160;28;20470;-65
2022/04/08 09:13:54;;;;;;;9.33;5.00;;;8.30;99.90;;;;;;5027878;28;20534;-65
2022/04/08 09:16:27;;;;;;;7.50;5.53;;;8.40;99.90;;;;;;5039450;28;20561;-65
2022/04/08 09:18:58;;;;;;;6.73;5.40;;;8.60;99.90;;;;;;5023952;28;20470;-65
2022/04/08 09:21:29;;;;;;;6.30;4.73;;;8.60;99.90;;;;;;5019989;28;20553;-65
2022/04/08 09:24:11;;;;;;;7.80;5.90;;;8.50;99.90;;;;;;5028340;28;20832;-65
2022/04/08 09:26:39;;;;;;;6.73;5.80;;;8.40;99.90;;;;;;5038378;28;20498;-65
2022/04/08 09:29:08;;;;;;;8.73;5.70;;;8.70;99.90;;;;;;5037357;28;20513;-65
2022/04/08 09:31:40;;;;;;;5.77;5.10;;;8.70;99.90;;;;;;5038942;28;20470;-66
2022/04/08 09:34:16;;;;;;;5.50;5.00;;;8.80;99.90;;;;;;5032126;28;20526;-65
2022/04/08 09:36:44;;;;;;;7.13;5.20;;;8.60;99.90;;;;;;5019777;28;20507;-65
2022/04/08 09:39:14;;;;;;;5.40;4.73;;;8.60;99.90;;;;;;5019660;28;20542;-66
2022/04/08 09:41:49;;;;;;;8.93;4.77;;;8.90;99.90;;;;;;5020448;28;20468;-66
2022/04/08 09:44:25;;;;;;;5.77;5.17;;;9.00;99.90;;;;;;5034814;28;20897;-66
2022/04/08 09:46:52;;;;;;;4.43;3.90;;;9.10;99.90;;;;;;5019286;28;20471;-66
2022/04/08 09:49:19;;;;;;;4.50;4.10;;;9.20;99.90;;;;;;5018892;28;20503;-66
2022/04/08 09:51:52;;;;;;;6.10;3.50;;;9.00;99.90;;;;;;5031147;28;20518;-66
2022/04/08 09:54:23;;;;;;;5.57;3.67;;;9.00;99.90;;;;;;5035786;28;20578;-66
2022/04/08 09:56:58;;;;;;;4.73;4.00;;;8.70;99.90;;;;;;5019263;28;20468;-66
2022/04/08 09:59:38;;;;;;;6.63;4.57;;;8.80;99.90;;;;;;5019496;28;20558;-66
2022/04/08 10:02:08;;;;;;;6.73;4.43;;;9.00;99.90;;;;;;5019652;28;20468;-66
2022/04/08 10:04:39;;;;;;;7.17;6.00;;;8.90;99.90;;;;;;5021990;28;20684;-66
2022/04/08 10:07:06;;;;;;;5.80;5.20;;;9.10;99.90;;;;;;5020067;28;20558;-66
2022/04/08 10:09:40;;;;;;;5.60;5.07;;;9.10;99.90;;;;;;5019241;28;20445;-66
2022/04/08 10:12:31;;;;;;;7.30;4.53;;;9.00;99.90;;;;;;5025552;28;20501;-66
2022/04/08 10:15:08;;;;;;;6.93;4.50;;;8.70;99.90;;;;;;5037585;28;20896;-66
2022/04/08 10:17:41;;;;;;;6.03;4.70;;;8.90;99.90;;;;;;5022244;28;20463;-66
2022/04/08 10:20:19;;;;;;;8.27;4.33;;;8.90;99.90;;;;;;5030387;28;20555;-66
2022/04/08 10:22:46;;;;;;;6.20;4.83;;;9.00;99.90;;;;;;5034478;28;20541;-66
2022/04/08 10:25:17;;;;;;;7.17;4.90;;;9.10;99.90;;;;;;5026666;28;20539;-66
2022/04/08 10:27:59;;;;;;;6.40;4.20;;;8.70;99.90;;;;;;5033096;28;20931;-66
2022/04/08 10:30:28;;;;;;;4.90;4.50;;;8.70;99.90;;;;;;5036956;28;21592;-66
2022/04/08 10:33:12;;;;;;;5.00;4.60;;;8.70;99.90;;;;;;5038376;28;20517;-66
2022/04/08 10:35:55;;;;;;;5.87;4.53;;;8.70;99.90;;;;;;5036116;28;20520;-66
2022/04/08 10:38:23;;;;;;;5.70;4.77;;;8.80;99.90;;;;;;5033839;28;20829;-66
2022/04/08 10:40:56;;;;;;;6.23;4.47;;;8.80;99.90;;;;;;5021276;28;20463;-66
2022/04/08 10:43:27;;;;;;;5.87;4.47;;;8.90;99.90;;;;;;5022619;28;20464;-66
2022/04/08 10:45:56;;;;;;;6.53;4.30;;;9.00;99.90;;;;;;5029758;28;20502;-66
2022/04/08 10:48:23;;;;;;;6.40;4.23;;;9.00;99.90;;;;;;5031942;28;20469;-66
2022/04/08 10:51:08;;;;;;;4.47;3.77;;;9.00;99.90;;;;;;5035300;28;20559;-66
2022/04/08 10:53:40;;;;;;;7.13;3.80;;;8.60;99.90;;;;;;5025000;28;20502;-66
2022/04/08 10:56:10;;;;;;;5.57;3.90;;;8.60;99.90;;;;;;5036833;28;20494;-66
2022/04/08 10:58:46;;;;;;;5.20;4.43;;;8.50;99.90;;;;;;5029791;28;20441;-66
2022/04/08 11:01:17;;;;;;;9.83;4.10;;;8.60;99.90;;;;;;5022096;28;20906;-66
2022/04/08 11:03:48;;;;;;;4.93;3.83;;;8.50;99.90;;;;;;5034912;28;20467;-66
2022/04/08 11:06:18;;;;;;;4.60;3.80;;;8.40;99.90;;;;;;5037656;28;20467;-66
2022/04/08 11:08:45;;;;;;;5.07;4.00;;;8.50;99.90;;;;;;5017882;28;20472;-66
2022/04/08 11:11:12;;;;;;;3.80;3.50;;;8.60;99.90;;;;;;5018781;28;20467;-66
2022/04/08 11:13:49;;;;;;;4.00;3.60;;;8.50;99.90;;;;;;5017621;28;20479;-66
2022/04/08 11:16:22;;;;;;;4.47;4.07;;;8.50;99.90;;;;;;5023122;28;20540;-66
2022/04/08 11:18:49;;;;;;;8.03;3.50;;;8.30;99.90;;;;;;5029875;28;20907;-66
2022/04/08 11:21:21;;;;;;;4.50;3.67;;;8.40;99.90;;;;;;5035649;28;20474;-66
2022/04/08 11:24:02;;;;;;;5.50;4.33;;;8.30;99.90;;;;;;5019878;28;20570;-66
2022/04/08 11:26:33;;;;;;;8.10;4.00;;;8.30;99.90;;;;;;5016783;28;20480;-66
2022/04/08 11:29:11;;;;;;;5.93;4.33;;;8.40;99.90;;;;;;5029609;28;20471;-66
2022/04/08 11:31:40;;;;;;;4.93;3.50;;;8.30;99.90;;;;;;5033502;28;20558;-66
2022/04/08 11:34:10;;;;;;;7.37;4.20;;;8.40;99.90;;;;;;5025189;28;20468;-66
2022/04/08 11:36:37;;;;;;;5.33;4.80;;;8.60;99.90;;;;;;5026643;28;20486;-65
2022/04/08 11:39:11;;;;;;;5.33;3.33;;;8.50;99.90;;;;;;5028330;28;20554;-66
2022/04/08 11:41:39;;;;;;;4.60;3.97;;;8.70;99.90;;;;;;5022315;28;20500;-66
2022/04/08 11:44:12;;;;;;;5.80;3.90;;;8.80;99.90;;;;;;5021161;28;20550;-64
2022/04/08 11:46:40;;;;;;;4.83;3.73;;;8.80;99.90;;;;;;5033774;28;20511;-64
2022/04/08 11:49:12;;;;;;;5.70;3.60;;;9.10;99.90;;;;;;5025819;28;20947;-64
2022/04/08 11:51:42;;;;;;;4.63;4.00;;;9.30;99.90;;;;;;5031717;28;20463;-64
2022/04/08 11:54:19;;;;;;;3.83;3.43;;;9.30;99.90;;;;;;5025721;28;20499;-64
2022/04/08 11:56:50;;;;;;;4.50;3.67;;;9.60;99.90;;;;;;5036670;28;20763;-64
2022/04/08 11:59:21;;;;;;;4.47;4.07;;;9.80;99.90;;;;;;5025526;28;20781;-64
2022/04/08 12:01:58;;;;;;;5.80;3.93;;;9.80;99.90;;;;;;5032445;28;20715;-64
2022/04/08 12:04:39;;;;;;;5.23;4.17;;;10.00;99.90;;;;;;5026998;28;20496;-64
2022/04/08 12:07:20;;;;;;;3.93;3.03;;;10.00;99.90;;;;;;5034644;28;20438;-64
2022/04/08 12:09:48;;;;;;;4.50;4.10;;;9.80;99.90;;;;;;5030968;28;20459;-64
2022/04/08 12:12:23;;;;;;;4.20;3.63;;;9.70;99.90;;;;;;5027834;28;20522;-64
2022/04/08 12:14:56;;;;;;;3.93;3.50;;;9.60;99.90;;;;;;5021959;28;20591;-64
2022/04/08 12:17:37;;;;;;;9.40;4.87;;;9.70;99.90;;;;;;5020119;28;20562;-64
2022/04/08 12:20:05;;;;;;;6.30;4.00;;;9.60;99.90;;;;;;5013746;28;20485;-64
2022/04/08 12:22:36;;;;;;;8.77;4.50;;;9.70;99.90;;;;;;5017155;28;20472;-64
2022/04/08 12:25:06;;;;;;;4.60;3.87;;;9.70;99.90;;;;;;5020555;28;20484;-64
2022/04/08 12:27:33;;;;;;;8.03;4.60;;;9.80;99.90;;;;;;5034509;28;20585;-64
2022/04/08 12:30:01;;;;;;;8.50;4.67;;;9.80;99.90;;;;;;5035963;28;20455;-64
2022/04/08 12:32:36;;;;;;;4.50;3.70;;;9.70;99.90;;;;;;5022023;28;20530;-64
2022/04/08 12:35:06;;;;;;;6.70;3.63;;;9.60;99.90;;;;;;5016700;28;20507;-64
2022/04/08 12:37:40;;;;;;;4.53;4.00;;;9.70;99.90;;;;;;5015591;28;20468;-64
2022/04/08 12:40:11;;;;;;;5.63;4.43;;;9.70;99.90;;;;;;5022999;28;20501;-64
2022/04/08 12:42:39;;;;;;;5.30;4.10;;;9.60;99.90;;;;;;5019086;28;20474;-64
2022/04/08 12:45:10;;;;;;;4.10;3.67;;;9.60;99.90;;;;;;5016523;28;20464;-64
2022/04/08 12:47:42;;;;;;;7.63;4.60;;;9.40;99.90;;;;;;5016550;28;20603;-64
2022/04/08 12:50:10;;;;;;;7.77;5.40;;;9.50;99.90;;;;;;5018007;28;20579;-64
2022/04/08 12:52:37;;;;;;;5.73;4.50;;;9.50;99.90;;;;;;5020856;28;20480;-64
2022/04/08 12:55:07;;;;;;;5.40;4.27;;;9.40;99.90;;;;;;5025078;28;20931;-64
2022/04/08 12:57:40;;;;;;;7.13;4.43;;;9.40;99.90;;;;;;5028436;28;20499;-64
2022/04/08 13:00:11;;;;;;;7.20;5.20;;;9.50;99.90;;;;;;5024171;28;20533;-66
2022/04/08 13:02:40;;;;;;;9.10;6.80;;;9.40;99.90;;;;;;5029494;28;20882;-66
2022/04/08 13:05:16;;;;;;;5.47;4.37;;;9.40;99.90;;;;;;5025246;28;20470;-66
2022/04/08 13:07:48;;;;;;;4.37;3.97;;;9.20;99.90;;;;;;5019166;28;20499;-66
2022/04/08 13:10:20;;;;;;;6.97;4.80;;;9.30;99.90;;;;;;5018833;28;20467;-66
2022/04/08 13:12:52;;;;;;;6.13;4.20;;;9.30;99.90;;;;;;5023331;28;20848;-66